createdAt,value
2022-10-05T00:00:44.175Z,3.37
2022-10-05T00:03:11.963Z,3.36
2022-10-05T00:05:39.479Z,3.30
2022-10-05T00:08:22.945Z,3.29
2022-10-05T00:10:50.564Z,3.29
2022-10-05T00:13:20.947Z,3.23
2022-10-05T00:15:48.741Z,3.14
2022-10-05T00:18:20.643Z,3.16
2022-10-05T00:20:48.601Z,3.21
2022-10-05T00:23:24.958Z,3.14
2022-10-05T00:25:51.526Z,3.09
2022-10-05T00:28:27.664Z,3.08
2022-10-05T00:31:00.707Z,3.03
2022-10-05T00:33:28.175Z,3.02
2022-10-05T00:35:55.351Z,3.06
2022-10-05T00:38:22.328Z,2.87
2022-10-05T00:41:13.941Z,3.01
2022-10-05T00:43:52.682Z,2.98
2022-10-05T00:46:41.792Z,2.96
2022-10-05T00:49:14.313Z,2.93
2022-10-05T00:51:43.801Z,2.85
2022-10-05T00:54:19.150Z,2.86
2022-10-05T00:57:07.280Z,2.92
2022-10-05T01:00:06.208Z,2.89
2022-10-05T01:02:59.142Z,2.80
2022-10-05T01:05:53.745Z,2.89
2022-10-05T01:08:47.985Z,2.97
2022-10-05T01:11:25.192Z,2.97
2022-10-05T01:14:19.325Z,2.88
2022-10-05T01:17:36.068Z,2.85
2022-10-05T01:20:23.597Z,2.86
2022-10-05T01:23:27.318Z,2.77
2022-10-05T01:26:06.332Z,2.74
2022-10-05T01:28:39.110Z,2.71
2022-10-05T01:31:19.541Z,2.69
2022-10-05T01:33:55.842Z,2.71
2022-10-05T01:36:40.584Z,2.59
2022-10-05T01:39:25.623Z,2.54
2022-10-05T01:42:16.885Z,2.54
2022-10-05T01:44:54.565Z,2.47
2022-10-05T01:47:50.087Z,2.54
2022-10-05T01:50:28.490Z,2.43
2022-10-05T01:53:12.876Z,2.44
2022-10-05T01:55:49.038Z,2.54
2022-10-05T01:58:30.027Z,2.42
2022-10-05T02:01:18.331Z,2.47
2022-10-05T02:03:53.480Z,2.45
2022-10-05T02:06:25.033Z,2.48
2022-10-05T02:09:02.526Z,2.47
2022-10-05T02:11:29.252Z,2.58
2022-10-05T02:14:03.002Z,2.40
2022-10-05T02:16:36.335Z,2.43
2022-10-05T02:19:11.604Z,2.46
2022-10-05T02:21:39.057Z,2.40
2022-10-05T02:24:18.495Z,2.37
2022-10-05T02:26:46.742Z,2.26
2022-10-05T02:29:16.539Z,2.36
2022-10-05T02:31:48.861Z,2.42
2022-10-05T02:34:26.360Z,2.43
2022-10-05T02:37:15.819Z,2.36
2022-10-05T02:40:04.743Z,2.39
2022-10-05T02:42:42.490Z,2.42
2022-10-05T02:45:26.485Z,2.47
2022-10-05T02:48:17.739Z,2.55
2022-10-05T02:50:53.665Z,2.50
2022-10-05T02:53:38.893Z,2.58
2022-10-05T02:56:28.570Z,2.54
2022-10-05T02:59:11.142Z,2.52
2022-10-05T03:01:49.307Z,2.42
2022-10-05T03:04:51.021Z,2.49
2022-10-05T03:07:37.434Z,2.47
2022-10-05T03:10:12.476Z,2.46
2022-10-05T03:13:19.842Z,2.66
2022-10-05T03:16:14.021Z,2.69
2022-10-05T03:19:17.967Z,2.71
2022-10-05T03:21:58.985Z,2.78
2022-10-05T03:25:02.814Z,2.78
2022-10-05T03:27:47.632Z,2.76
2022-10-05T03:30:21.936Z,2.75
2022-10-05T03:33:19.433Z,2.67
2022-10-05T03:35:53.259Z,2.77
2022-10-05T03:38:44.087Z,2.76
2022-10-05T03:41:31.552Z,2.74
2022-10-05T03:44:31.602Z,2.70
2022-10-05T03:47:19.358Z,2.65
2022-10-05T03:50:04.463Z,2.48
2022-10-05T03:52:48.332Z,2.57
2022-10-05T03:55:26.661Z,2.62
2022-10-05T03:57:58.526Z,2.56
2022-10-05T04:00:28.049Z,2.37
2022-10-05T04:03:09.078Z,2.35
2022-10-05T04:05:50.513Z,2.44
2022-10-05T04:08:34.324Z,2.31
2022-10-05T04:11:06.215Z,2.27
2022-10-05T04:13:59.442Z,2.20
2022-10-05T04:16:31.088Z,2.18
2022-10-05T04:19:05.864Z,2.21
2022-10-05T04:21:55.181Z,2.27
2022-10-05T04:24:35.058Z,2.13
2022-10-05T04:27:09.377Z,2.21
2022-10-05T04:29:44.798Z,2.11
2022-10-05T04:32:36.952Z,1.97
2022-10-05T04:35:18.576Z,2.09
2022-10-05T04:38:05.282Z,2.12
2022-10-05T04:40:46.989Z,2.03
2022-10-05T04:43:24.507Z,1.95
2022-10-05T04:46:11.886Z,1.92
2022-10-05T04:49:09.404Z,2.02
2022-10-05T04:52:00.706Z,2.07
2022-10-05T04:54:44.492Z,2.02
2022-10-05T04:57:16.897Z,2.08
2022-10-05T05:00:05.672Z,1.96
2022-10-05T05:02:44.702Z,2.14
2022-10-05T05:05:27.219Z,2.16
2022-10-05T05:07:53.613Z,2.09
2022-10-05T05:10:40.735Z,2.10
2022-10-05T05:13:13.118Z,2.15
2022-10-05T05:16:02.093Z,2.22
2022-10-05T05:18:51.962Z,2.12
2022-10-05T05:21:35.975Z,2.21
2022-10-05T05:24:30.105Z,2.27
2022-10-05T05:27:11.016Z,2.16
2022-10-05T05:29:52.030Z,2.21
2022-10-05T05:32:33.398Z,2.29
2022-10-05T05:35:18.104Z,2.44
2022-10-05T05:37:58.142Z,2.39
2022-10-05T05:40:30.144Z,2.56
2022-10-05T05:42:56.675Z,2.60
2022-10-05T05:45:42.071Z,4.56
2022-10-05T05:48:42.694Z,4.41
2022-10-05T05:51:19.877Z,4.02
2022-10-05T05:53:50.741Z,3.88
2022-10-05T05:56:22.153Z,3.79
2022-10-05T05:59:00.868Z,3.87
2022-10-05T06:01:37.693Z,4.05
2022-10-05T06:04:15.081Z,4.49
2022-10-05T06:06:48.760Z,4.85
2022-10-05T06:09:24.551Z,4.83
2022-10-05T06:12:00.809Z,4.93
2022-10-05T06:15:00.543Z,4.61
2022-10-05T06:17:32.074Z,4.78
2022-10-05T06:20:04.991Z,5.42
2022-10-05T06:22:38.790Z,6.19
2022-10-05T06:25:12.262Z,6.08
2022-10-05T06:27:58.357Z,6.23
2022-10-05T06:30:28.615Z,7.11
2022-10-05T06:33:01.030Z,8.40
2022-10-05T06:35:56.651Z,9.99
2022-10-05T06:38:38.163Z,11.71
2022-10-05T06:41:32.467Z,12.93
2022-10-05T06:44:06.138Z,14.08
2022-10-05T06:46:43.938Z,14.71
2022-10-05T06:49:34.389Z,15.78
2022-10-05T06:52:15.986Z,15.70
2022-10-05T06:54:43.059Z,16.34
2022-10-05T06:57:44.556Z,16.87
2022-10-05T07:00:17.023Z,16.87
2022-10-05T07:03:25.582Z,18.35
2022-10-05T07:06:20.152Z,18.91
2022-10-05T07:08:49.492Z,17.32
2022-10-05T07:11:34.656Z,16.79
2022-10-05T07:14:39.372Z,16.92
2022-10-05T07:17:22.287Z,18.54
2022-10-05T07:20:14.153Z,19.65
2022-10-05T07:23:14.239Z,19.67
2022-10-05T07:25:46.703Z,21.10
2022-10-05T07:28:33.464Z,20.61
2022-10-05T07:31:16.046Z,21.11
2022-10-05T07:34:06.717Z,21.06
2022-10-05T07:37:09.469Z,22.57
2022-10-05T07:40:06.287Z,22.07
2022-10-05T07:42:50.894Z,22.67
2022-10-05T07:45:29.085Z,23.62
2022-10-05T07:48:06.867Z,23.00
2022-10-05T07:51:04.110Z,23.85
2022-10-05T07:53:38.923Z,24.46
2022-10-05T07:56:13.496Z,23.63
2022-10-05T07:58:47.414Z,24.75
2022-10-05T08:01:36.608Z,25.33
2022-10-05T08:04:13.387Z,24.07
2022-10-05T08:06:56.606Z,24.28
2022-10-05T08:09:35.781Z,24.63
2022-10-05T08:12:14.625Z,25.49
2022-10-05T08:14:56.970Z,25.19
2022-10-05T08:17:37.903Z,23.69
2022-10-05T08:20:22.013Z,24.15
2022-10-05T08:22:57.938Z,25.31
2022-10-05T08:26:09.073Z,26.20
2022-10-05T08:28:38.155Z,27.10
2022-10-05T08:31:16.734Z,26.80
2022-10-05T08:34:20.097Z,26.98
2022-10-05T08:37:07.051Z,27.07
2022-10-05T08:39:44.671Z,26.99
2022-10-05T08:42:44.878Z,27.59
2022-10-05T08:45:48.666Z,27.77
2022-10-05T08:48:24.267Z,27.89
2022-10-05T08:51:31.803Z,29.67
2022-10-05T08:54:16.678Z,28.24
2022-10-05T08:56:46.180Z,30.00
2022-10-05T09:00:02.852Z,28.94
2022-10-05T09:03:11.545Z,29.94
2022-10-05T09:05:37.880Z,29.31
2022-10-05T09:08:10.258Z,27.36
2022-10-05T09:11:18.191Z,28.37
2022-10-05T09:14:02.952Z,27.04
2022-10-05T09:16:49.462Z,28.82
2022-10-05T09:19:53.145Z,27.18
2022-10-05T09:22:38.345Z,26.10
2022-10-05T09:25:46.017Z,26.32
2022-10-05T09:28:22.953Z,25.98
2022-10-05T09:30:56.562Z,25.72
2022-10-05T09:33:53.948Z,26.50
2022-10-05T09:36:47.911Z,26.05
2022-10-05T09:39:35.623Z,26.46
2022-10-05T09:42:26.849Z,27.59
2022-10-05T09:45:09.909Z,28.78
2022-10-05T09:48:11.539Z,27.39
2022-10-05T09:50:37.972Z,27.73
2022-10-05T09:53:10.096Z,29.44
2022-10-05T09:55:55.071Z,30.38
2022-10-05T09:58:57.645Z,29.33
2022-10-05T10:01:44.638Z,29.49
2022-10-05T10:04:26.687Z,27.95
2022-10-05T10:07:11.942Z,26.95
2022-10-05T10:09:49.243Z,28.43
2022-10-05T10:12:24.438Z,28.01
2022-10-05T10:15:01.926Z,28.37
2022-10-05T10:18:06.238Z,28.58
2022-10-05T10:20:56.185Z,29.84
2022-10-05T10:23:27.300Z,29.03
2022-10-05T10:26:05.927Z,29.46
2022-10-05T10:28:46.906Z,29.83
2022-10-05T10:31:28.621Z,28.09
2022-10-05T10:34:16.351Z,27.54
2022-10-05T10:37:07.188Z,27.23
2022-10-05T10:39:45.154Z,26.22
2022-10-05T10:43:03.805Z,28.57
2022-10-05T10:45:57.551Z,26.56
2022-10-05T10:48:46.200Z,26.88
2022-10-05T10:51:22.002Z,27.32
2022-10-05T10:53:56.054Z,28.17
2022-10-05T10:56:50.907Z,26.08
2022-10-05T10:59:42.371Z,26.57
2022-10-05T11:02:43.059Z,26.28
2022-10-05T11:05:28.815Z,27.82
2022-10-05T11:08:16.858Z,27.04
2022-10-05T11:11:22.130Z,27.60
2022-10-05T11:14:21.037Z,26.35
2022-10-05T11:17:05.767Z,26.32
2022-10-05T11:20:10.524Z,27.50
2022-10-05T11:22:50.396Z,26.95
2022-10-05T11:25:35.150Z,26.17
2022-10-05T11:28:28.622Z,27.26
2022-10-05T11:31:25.558Z,26.28
2022-10-05T11:34:20.617Z,26.55
2022-10-05T11:36:53.830Z,29.04
2022-10-05T11:39:36.935Z,28.99
2022-10-05T11:42:51.244Z,29.16
2022-10-05T11:45:21.778Z,29.74
2022-10-05T11:48:10.629Z,29.14
2022-10-05T11:50:57.209Z,29.66
2022-10-05T11:53:26.690Z,28.84
2022-10-05T11:56:12.642Z,30.50
2022-10-05T11:58:47.198Z,31.05
2022-10-05T12:01:30.847Z,28.84
2022-10-05T12:04:25.795Z,28.92
2022-10-05T12:07:02.869Z,29.82
2022-10-05T12:10:05.451Z,30.49
2022-10-05T12:12:45.246Z,29.58
2022-10-05T12:15:23.933Z,27.93
2022-10-05T12:18:13.683Z,27.52
2022-10-05T12:21:14.805Z,27.70
2022-10-05T12:23:54.782Z,26.41
2022-10-05T12:26:37.969Z,27.24
2022-10-05T12:29:33.425Z,26.48
2022-10-05T12:32:13.394Z,25.89
2022-10-05T12:35:03.287Z,25.48
2022-10-05T12:37:46.547Z,25.07
2022-10-05T12:40:19.013Z,24.83
2022-10-05T12:42:57.852Z,24.96
2022-10-05T12:45:47.425Z,23.88
2022-10-05T12:48:22.892Z,25.06
2022-10-05T12:51:04.143Z,24.92
2022-10-05T12:53:48.394Z,24.75
2022-10-05T12:56:23.680Z,24.41
2022-10-05T12:59:19.272Z,24.54
2022-10-05T13:02:05.812Z,25.21
2022-10-05T13:04:49.412Z,24.89
2022-10-05T13:07:41.162Z,24.51
2022-10-05T13:10:24.685Z,24.53
2022-10-05T13:13:06.162Z,25.42
2022-10-05T13:16:05.503Z,25.34
2022-10-05T13:18:44.330Z,24.91
2022-10-05T13:21:45.841Z,23.64
2022-10-05T13:24:22.170Z,24.32
2022-10-05T13:26:55.062Z,24.13
2022-10-05T13:29:29.202Z,24.07
2022-10-05T13:32:00.443Z,23.30
2022-10-05T13:34:40.179Z,24.00
2022-10-05T13:37:17.409Z,23.01
2022-10-05T13:40:00.865Z,24.10
2022-10-05T13:42:42.595Z,23.77
2022-10-05T13:45:27.244Z,23.44
2022-10-05T13:48:11.324Z,23.69
2022-10-05T13:51:07.558Z,23.27
2022-10-05T13:53:41.923Z,23.01
2022-10-05T13:56:36.195Z,22.51
2022-10-05T13:59:11.914Z,22.35
2022-10-05T14:01:49.203Z,22.05
2022-10-05T14:04:21.402Z,21.74
2022-10-05T14:06:49.304Z,21.61
2022-10-05T14:09:22.145Z,21.75
2022-10-05T14:12:11.877Z,21.53
2022-10-05T14:14:57.277Z,21.13
2022-10-05T14:17:29.240Z,21.39
2022-10-05T14:20:00.951Z,21.20
2022-10-05T14:22:27.878Z,21.31
2022-10-05T14:25:02.899Z,21.21
2022-10-05T14:27:34.901Z,21.05
2022-10-05T14:30:18.559Z,20.92
2022-10-05T14:33:04.879Z,20.88
2022-10-05T14:35:49.111Z,21.14
2022-10-05T14:38:29.410Z,20.64
2022-10-05T14:41:17.380Z,20.65
2022-10-05T14:44:13.419Z,20.45
2022-10-05T14:46:53.012Z,20.32
2022-10-05T14:49:25.733Z,20.27
2022-10-05T14:51:53.873Z,20.24
2022-10-05T14:54:42.277Z,20.28
2022-10-05T14:57:18.110Z,20.22
2022-10-05T15:00:04.125Z,20.18
2022-10-05T15:03:01.273Z,19.74
2022-10-05T15:05:52.384Z,19.87
2022-10-05T15:08:41.466Z,19.73
2022-10-05T15:11:16.675Z,19.61
2022-10-05T15:13:48.566Z,19.52
2022-10-05T15:16:19.791Z,19.36
2022-10-05T15:19:13.813Z,19.20
2022-10-05T15:21:51.373Z,19.21
2022-10-05T15:24:22.190Z,19.05
2022-10-05T15:26:58.250Z,18.91
2022-10-05T15:30:09.704Z,18.70
2022-10-05T15:32:44.271Z,18.60
2022-10-05T15:35:20.288Z,18.45
2022-10-05T15:37:54.891Z,18.35
2022-10-05T15:40:59.522Z,18.09
2022-10-05T15:43:58.838Z,17.98
2022-10-05T15:46:56.754Z,17.80
2022-10-05T15:49:44.667Z,17.65
2022-10-05T15:52:29.885Z,17.50
2022-10-05T15:55:25.416Z,17.38
2022-10-05T15:57:57.540Z,17.32
2022-10-05T16:00:26.360Z,17.11
2022-10-05T16:03:11.914Z,17.04
2022-10-05T16:05:56.913Z,16.81
2022-10-05T16:09:00.333Z,16.55
2022-10-05T16:11:47.697Z,16.33
2022-10-05T16:14:33.357Z,16.12
2022-10-05T16:17:15.622Z,15.88
2022-10-05T16:20:17.726Z,15.69
2022-10-05T16:23:21.434Z,15.56
2022-10-05T16:25:53.970Z,15.35
2022-10-05T16:28:35.930Z,15.10
2022-10-05T16:31:11.413Z,14.95
2022-10-05T16:34:06.532Z,14.75
2022-10-05T16:36:44.455Z,14.60
2022-10-05T16:39:41.479Z,14.43
2022-10-05T16:42:26.636Z,14.22
2022-10-05T16:45:06.863Z,14.09
2022-10-05T16:48:15.167Z,14.00
2022-10-05T16:51:20.065Z,13.91
2022-10-05T16:53:59.645Z,13.87
2022-10-05T16:56:37.556Z,13.75
2022-10-05T16:59:33.118Z,13.59
2022-10-05T17:02:00.714Z,13.44
2022-10-05T17:04:57.972Z,13.34
2022-10-05T17:07:34.687Z,13.19
2022-10-05T17:10:30.597Z,13.10
2022-10-05T17:13:14.160Z,13.04
2022-10-05T17:16:22.948Z,12.93
2022-10-05T17:19:34.255Z,12.85
2022-10-05T17:22:12.610Z,12.70
2022-10-05T17:25:04.735Z,12.65
2022-10-05T17:27:55.402Z,12.54
2022-10-05T17:30:38.300Z,12.51
2022-10-05T17:33:28.896Z,12.49
2022-10-05T17:36:12.872Z,12.43
2022-10-05T17:38:48.704Z,12.28
2022-10-05T17:41:23.454Z,12.19
2022-10-05T17:44:20.989Z,12.08
2022-10-05T17:47:00.681Z,12.06
2022-10-05T17:50:15.330Z,12.02
2022-10-05T17:53:02.686Z,11.93
2022-10-05T17:55:55.530Z,11.90
2022-10-05T17:58:28.515Z,11.88
2022-10-05T18:00:58.302Z,11.82
2022-10-05T18:03:43.434Z,11.69
2022-10-05T18:06:29.578Z,11.61
2022-10-05T18:09:16.956Z,11.56
2022-10-05T18:11:45.133Z,11.55
2022-10-05T18:14:24.609Z,11.55
2022-10-05T18:17:35.729Z,11.53
2022-10-05T18:20:18.244Z,11.49
2022-10-05T18:22:47.171Z,11.33
2022-10-05T18:25:29.449Z,11.27
2022-10-05T18:28:02.447Z,11.19
2022-10-05T18:30:38.721Z,11.14
2022-10-05T18:33:17.360Z,11.05
2022-10-05T18:35:46.905Z,10.96
2022-10-05T18:38:31.316Z,10.96
2022-10-05T18:41:21.270Z,10.91
2022-10-05T18:43:59.903Z,10.91
2022-10-05T18:47:02.302Z,10.85
2022-10-05T18:49:44.077Z,10.77
2022-10-05T18:52:51.881Z,10.75
2022-10-05T18:55:32.800Z,10.65
2022-10-05T18:58:26.030Z,10.62
2022-10-05T19:01:43.783Z,10.62
2022-10-05T19:04:24.557Z,10.58
2022-10-05T19:07:20.589Z,10.47
2022-10-05T19:09:58.536Z,10.49
2022-10-05T19:12:41.639Z,10.44
2022-10-05T19:15:30.567Z,10.37
2022-10-05T19:18:06.127Z,10.30
2022-10-05T19:20:46.965Z,10.31
2022-10-05T19:23:28.880Z,10.29
2022-10-05T19:26:08.850Z,10.40
2022-10-05T19:28:42.703Z,10.33
2022-10-05T19:31:12.246Z,10.32
2022-10-05T19:33:52.962Z,10.22
2022-10-05T19:36:47.081Z,10.23
2022-10-05T19:39:37.200Z,10.12
2022-10-05T19:42:04.270Z,10.02
2022-10-05T19:44:39.082Z,10.05
2022-10-05T19:47:48.785Z,9.93
2022-10-05T19:50:28.555Z,9.86
2022-10-05T19:53:13.978Z,9.78
2022-10-05T19:55:43.709Z,9.76
2022-10-05T19:58:39.614Z,9.74
2022-10-05T20:01:06.914Z,9.70
2022-10-05T20:03:37.284Z,9.64
2022-10-05T20:06:08.992Z,9.64
2022-10-05T20:08:43.969Z,9.55
2022-10-05T20:11:15.950Z,9.37
2022-10-05T20:13:47.031Z,9.37
2022-10-05T20:16:34.930Z,9.35
2022-10-05T20:19:22.601Z,9.31
2022-10-05T20:21:59.688Z,9.37
2022-10-05T20:24:28.552Z,9.24
2022-10-05T20:27:09.504Z,9.24
2022-10-05T20:29:44.497Z,9.32
2022-10-05T20:32:13.246Z,9.15
2022-10-05T20:34:42.066Z,9.13
2022-10-05T20:37:11.437Z,9.11
2022-10-05T20:39:38.901Z,9.07
2022-10-05T20:42:05.934Z,9.08
2022-10-05T20:44:32.441Z,8.98
2022-10-05T20:47:01.222Z,9.10
2022-10-05T20:49:32.146Z,9.11
2022-10-05T20:51:58.858Z,9.03
2022-10-05T20:54:26.545Z,8.96
2022-10-05T20:56:55.796Z,8.87
2022-10-05T20:59:23.481Z,8.81
2022-10-05T21:01:50.253Z,8.79
2022-10-05T21:04:24.207Z,8.75
2022-10-05T21:06:51.015Z,8.67
2022-10-05T21:09:21.310Z,8.65
2022-10-05T21:11:50.089Z,8.62
2022-10-05T21:14:17.230Z,8.56
2022-10-05T21:16:45.785Z,8.57
2022-10-05T21:19:14.097Z,8.55
2022-10-05T21:21:42.639Z,8.49
2022-10-05T21:24:10.063Z,8.43
2022-10-05T21:26:37.500Z,8.43
2022-10-05T21:29:08.957Z,8.39
2022-10-05T21:31:37.756Z,8.36
2022-10-05T21:34:04.977Z,8.29
2022-10-05T21:36:32.521Z,8.15
2022-10-05T21:38:59.069Z,8.09
2022-10-05T21:41:25.574Z,8.11
2022-10-05T21:43:52.043Z,8.08
2022-10-05T21:46:21.919Z,8.05
2022-10-05T21:48:49.602Z,7.97
2022-10-05T21:51:18.905Z,7.95
2022-10-05T21:53:53.913Z,7.99
2022-10-05T21:56:23.355Z,7.93
2022-10-05T21:58:51.423Z,7.95
2022-10-05T22:01:22.370Z,8.00
2022-10-05T22:03:49.595Z,7.84
2022-10-05T22:06:16.165Z,7.79
2022-10-05T22:08:42.758Z,7.74
2022-10-05T22:11:15.498Z,7.81
2022-10-05T22:13:50.720Z,7.73
2022-10-05T22:16:19.979Z,7.79
2022-10-05T22:18:47.831Z,7.75
2022-10-05T22:21:14.714Z,7.65
2022-10-05T22:23:43.281Z,7.63
2022-10-05T22:26:12.503Z,7.65
2022-10-05T22:28:40.256Z,7.62
2022-10-05T22:31:09.515Z,7.59
2022-10-05T22:33:37.208Z,7.49
2022-10-05T22:36:05.448Z,7.49
2022-10-05T22:38:32.382Z,7.39
2022-10-05T22:40:58.958Z,7.44
2022-10-05T22:43:28.947Z,7.34
2022-10-05T22:45:56.097Z,7.35
2022-10-05T22:48:22.650Z,7.31
2022-10-05T22:50:49.380Z,7.33
2022-10-05T22:53:16.052Z,7.39
2022-10-05T22:55:42.654Z,7.25
2022-10-05T22:58:09.174Z,7.24
2022-10-05T23:00:57.169Z,7.25
2022-10-05T23:03:22.168Z,7.15
2022-10-05T23:05:56.247Z,7.15
2022-10-05T23:08:22.810Z,7.09
2022-10-05T23:10:49.254Z,7.13
2022-10-05T23:13:15.740Z,7.18
2022-10-05T23:15:42.484Z,7.06
2022-10-05T23:18:08.962Z,7.06
2022-10-05T23:20:35.518Z,7.06
2022-10-05T23:23:02.018Z,7.03
2022-10-05T23:25:28.546Z,7.02
2022-10-05T23:27:55.059Z,7.03
2022-10-05T23:30:21.602Z,6.91
2022-10-05T23:32:48.256Z,6.93
2022-10-05T23:35:14.911Z,6.97
2022-10-05T23:37:45.396Z,6.94
2022-10-05T23:40:13.814Z,6.90
2022-10-05T23:42:41.107Z,6.84
2022-10-05T23:45:11.654Z,6.83
2022-10-05T23:47:39.549Z,6.80
2022-10-05T23:50:07.839Z,6.79
2022-10-05T23:52:35.221Z,6.80
2022-10-05T23:55:05.809Z,6.70
2022-10-05T23:57:32.685Z,6.58
